BQN weather

Rafael Hernandez Airport
Aguadilla, Puerto Rico

Public forecast

Using degrees Celsius for public forecast. Weather courtesy of forecast.io.

Current aviation weather report (METAR) for Rafael Hernandez Airport

Report is more than 6 hours old.

Retrieved 2020/05/31 00:50 UTC (6 hours ago):

TJBQ 310050Z 15003KT 10SM CLR A3003

Aviation forecast (TAF) for Rafael Hernandez Airport

Retrieved 2020/05/31 06:24 UTC (35 minutes ago):

TAF TJBQ 310520Z 3106/0106 13005KT P6SM FEW030 FM311500 06011KT P6SM FEW030 FM311800 08014KT P6SM VCTS SCT025CB SCT040 FM312200 10007KT P6SM FEW025 AMD NOT SKED TIL 311100